sensor_id;sensor_type;location;lat;lon;timestamp;temperature;humidity
14053;DHT22;7101;51.600;7.310;2022-08-19T00:00:16;17.70;99.90
14053;DHT22;7101;51.600;7.310;2022-08-19T00:02:44;17.60;99.90
14053;DHT22;7101;51.600;7.310;2022-08-19T00:05:14;17.60;99.90
14053;DHT22;7101;51.600;7.310;2022-08-19T00:07:41;17.50;99.90
14053;DHT22;7101;51.600;7.310;2022-08-19T00:10:11;17.50;99.90
14053;DHT22;7101;51.600;7.310;2022-08-19T00:12:38;17.40;99.90
14053;DHT22;7101;51.600;7.310;2022-08-19T00:15:06;17.40;99.90
14053;DHT22;7101;51.600;7.310;2022-08-19T00:17:38;17.40;99.90
14053;DHT22;7101;51.600;7.310;2022-08-19T00:20:05;17.30;99.90
14053;DHT22;7101;51.600;7.310;2022-08-19T00:22:34;17.30;99.90
14053;DHT22;7101;51.600;7.310;2022-08-19T00:25:01;17.40;99.90
14053;DHT22;7101;51.600;7.310;2022-08-19T00:27:28;17.40;99.90
14053;DHT22;7101;51.600;7.310;2022-08-19T00:29:54;17.30;99.90
14053;DHT22;7101;51.600;7.310;2022-08-19T00:32:21;17.30;99.90
14053;DHT22;7101;51.600;7.310;2022-08-19T00:34:48;17.20;99.90
14053;DHT22;7101;51.600;7.310;2022-08-19T00:37:17;17.20;99.90
14053;DHT22;7101;51.600;7.310;2022-08-19T00:39:46;17.20;99.90
14053;DHT22;7101;51.600;7.310;2022-08-19T00:42:13;17.20;99.90
14053;DHT22;7101;51.600;7.310;2022-08-19T00:44:41;17.20;99.90
14053;DHT22;7101;51.600;7.310;2022-08-19T00:47:08;17.20;99.90
14053;DHT22;7101;51.600;7.310;2022-08-19T00:49:40;17.20;99.90
14053;DHT22;7101;51.600;7.310;2022-08-19T00:52:10;17.10;99.90
14053;DHT22;7101;51.600;7.310;2022-08-19T00:54:40;17.10;99.90
14053;DHT22;7101;51.600;7.310;2022-08-19T00:57:11;17.10;99.90
14053;DHT22;7101;51.600;7.310;2022-08-19T00:59:42;17.00;99.90
14053;DHT22;7101;51.600;7.310;2022-08-19T01:02:11;17.00;99.90
14053;DHT22;7101;51.600;7.310;2022-08-19T01:04:38;17.00;99.90
14053;DHT22;7101;51.600;7.310;2022-08-19T01:07:05;17.00;99.90
14053;DHT22;7101;51.600;7.310;2022-08-19T01:09:31;16.90;99.90
14053;DHT22;7101;51.600;7.310;2022-08-19T01:11:58;16.80;99.90
14053;DHT22;7101;51.600;7.310;2022-08-19T01:14:26;16.80;99.90
14053;DHT22;7101;51.600;7.310;2022-08-19T01:16:54;16.80;99.90
14053;DHT22;7101;51.600;7.310;2022-08-19T01:19:27;16.80;99.90
14053;DHT22;7101;51.600;7.310;2022-08-19T01:21:59;16.80;99.90
14053;DHT22;7101;51.600;7.310;2022-08-19T01:24:28;16.80;99.90
14053;DHT22;7101;51.600;7.310;2022-08-19T01:26:56;16.90;99.90
14053;DHT22;7101;51.600;7.310;2022-08-19T01:29:23;16.90;99.90
14053;DHT22;7101;51.600;7.310;2022-08-19T01:31:50;16.90;99.90
14053;DHT22;7101;51.600;7.310;2022-08-19T01:34:19;16.90;99.90
14053;DHT22;7101;51.600;7.310;2022-08-19T01:36:47;16.80;99.90
14053;DHT22;7101;51.600;7.310;2022-08-19T01:39:18;16.70;99.90
14053;DHT22;7101;51.600;7.310;2022-08-19T01:41:46;16.70;99.90
14053;DHT22;7101;51.600;7.310;2022-08-19T01:44:14;16.70;99.90
14053;DHT22;7101;51.600;7.310;2022-08-19T01:46:41;16.70;99.90
14053;DHT22;7101;51.600;7.310;2022-08-19T01:49:09;16.60;99.90
14053;DHT22;7101;51.600;7.310;2022-08-19T01:51:37;16.50;99.90
14053;DHT22;7101;51.600;7.310;2022-08-19T01:54:05;16.50;99.90
14053;DHT22;7101;51.600;7.310;2022-08-19T01:56:31;16.50;99.90
14053;DHT22;7101;51.600;7.310;2022-08-19T01:59:02;16.50;99.90
14053;DHT22;7101;51.600;7.310;2022-08-19T02:01:30;16.50;99.90
14053;DHT22;7101;51.600;7.310;2022-08-19T02:03:58;16.50;99.90
14053;DHT22;7101;51.600;7.310;2022-08-19T02:06:26;16.50;99.90
14053;DHT22;7101;51.600;7.310;2022-08-19T02:08:53;16.60;99.90
14053;DHT22;7101;51.600;7.310;2022-08-19T02:11:22;16.60;99.90
14053;DHT22;7101;51.600;7.310;2022-08-19T02:13:52;16.40;99.90
14053;DHT22;7101;51.600;7.310;2022-08-19T02:16:21;16.40;99.90
14053;DHT22;7101;51.600;7.310;2022-08-19T02:18:48;16.40;99.90
14053;DHT22;7101;51.600;7.310;2022-08-19T02:21:15;16.40;99.90
14053;DHT22;7101;51.600;7.310;2022-08-19T02:23:43;16.40;99.90
14053;DHT22;7101;51.600;7.310;2022-08-19T02:26:12;16.40;99.90
14053;DHT22;7101;51.600;7.310;2022-08-19T02:28:40;16.40;99.90
14053;DHT22;7101;51.600;7.310;2022-08-19T02:31:09;16.40;99.90
14053;DHT22;7101;51.600;7.310;2022-08-19T02:33:38;16.50;99.90
14053;DHT22;7101;51.600;7.310;2022-08-19T02:36:06;16.40;99.90
14053;DHT22;7101;51.600;7.310;2022-08-19T02:38:33;16.40;99.90
14053;DHT22;7101;51.600;7.310;2022-08-19T02:41:02;16.40;99.90
14053;DHT22;7101;51.600;7.310;2022-08-19T02:43:31;16.50;99.90
14053;DHT22;7101;51.600;7.310;2022-08-19T02:46:10;16.50;99.90
14053;DHT22;7101;51.600;7.310;2022-08-19T02:48:38;16.50;99.90
14053;DHT22;7101;51.600;7.310;2022-08-19T02:51:05;16.40;99.90
14053;DHT22;7101;51.600;7.310;2022-08-19T02:53:32;16.40;99.90
14053;DHT22;7101;51.600;7.310;2022-08-19T02:55:59;16.40;99.90
14053;DHT22;7101;51.600;7.310;2022-08-19T02:58:25;16.40;99.90
14053;DHT22;7101;51.600;7.310;2022-08-19T03:00:55;16.40;99.90
14053;DHT22;7101;51.600;7.310;2022-08-19T03:03:22;16.40;99.90
14053;DHT22;7101;51.600;7.310;2022-08-19T03:05:51;16.40;99.90
14053;DHT22;7101;51.600;7.310;2022-08-19T03:08:18;16.40;99.90
14053;DHT22;7101;51.600;7.310;2022-08-19T03:10:47;16.50;99.90
14053;DHT22;7101;51.600;7.310;2022-08-19T03:13:16;16.50;99.90
14053;DHT22;7101;51.600;7.310;2022-08-19T03:15:46;16.50;99.90
14053;DHT22;7101;51.600;7.310;2022-08-19T03:18:13;16.40;99.90
14053;DHT22;7101;51.600;7.310;2022-08-19T03:20:41;16.50;99.90
14053;DHT22;7101;51.600;7.310;2022-08-19T03:23:10;16.60;99.90
14053;DHT22;7101;51.600;7.310;2022-08-19T03:25:39;16.60;99.90
14053;DHT22;7101;51.600;7.310;2022-08-19T03:28:09;16.60;99.90
14053;DHT22;7101;51.600;7.310;2022-08-19T03:30:35;16.60;99.90
14053;DHT22;7101;51.600;7.310;2022-08-19T03:33:02;16.60;99.90
14053;DHT22;7101;51.600;7.310;2022-08-19T03:35:29;16.50;99.90
14053;DHT22;7101;51.600;7.310;2022-08-19T03:37:57;16.60;99.90
14053;DHT22;7101;51.600;7.310;2022-08-19T03:40:26;16.50;99.90
14053;DHT22;7101;51.600;7.310;2022-08-19T03:42:55;16.40;99.90
14053;DHT22;7101;51.600;7.310;2022-08-19T03:45:22;16.30;99.90
14053;DHT22;7101;51.600;7.310;2022-08-19T03:47:49;16.30;99.90
14053;DHT22;7101;51.600;7.310;2022-08-19T03:50:16;16.40;99.90
14053;DHT22;7101;51.600;7.310;2022-08-19T03:52:48;16.30;99.90
14053;DHT22;7101;51.600;7.310;2022-08-19T03:55:16;16.40;99.90
14053;DHT22;7101;51.600;7.310;2022-08-19T03:57:44;16.50;99.90
14053;DHT22;7101;51.600;7.310;2022-08-19T04:00:15;16.60;99.90
14053;DHT22;7101;51.600;7.310;2022-08-19T04:02:42;16.60;99.90
14053;DHT22;7101;51.600;7.310;2022-08-19T04:05:09;16.60;99.90
14053;DHT22;7101;51.600;7.310;2022-08-19T04:07:36;16.60;99.90
14053;DHT22;7101;51.600;7.310;2022-08-19T04:10:04;16.60;99.90
14053;DHT22;7101;51.600;7.310;2022-08-19T04:12:31;16.50;99.90
14053;DHT22;7101;51.600;7.310;2022-08-19T04:14:59;16.40;99.90
14053;DHT22;7101;51.600;7.310;2022-08-19T04:17:26;16.40;99.90
14053;DHT22;7101;51.600;7.310;2022-08-19T04:19:52;16.30;99.90
14053;DHT22;7101;51.600;7.310;2022-08-19T04:22:19;16.20;99.90
14053;DHT22;7101;51.600;7.310;2022-08-19T04:24:46;16.20;99.90
14053;DHT22;7101;51.600;7.310;2022-08-19T04:27:13;16.20;99.90
14053;DHT22;7101;51.600;7.310;2022-08-19T04:29:41;16.20;99.90
14053;DHT22;7101;51.600;7.310;2022-08-19T04:32:10;16.20;99.90
14053;DHT22;7101;51.600;7.310;2022-08-19T04:34:37;16.20;99.90
14053;DHT22;7101;51.600;7.310;2022-08-19T04:37:05;16.20;99.90
14053;DHT22;7101;51.600;7.310;2022-08-19T04:39:33;16.20;99.90
14053;DHT22;7101;51.600;7.310;2022-08-19T04:42:17;16.30;99.90
14053;DHT22;7101;51.600;7.310;2022-08-19T04:45:02;16.30;99.90
14053;DHT22;7101;51.600;7.310;2022-08-19T04:47:31;16.30;99.90
14053;DHT22;7101;51.600;7.310;2022-08-19T04:49:58;16.50;99.90
14053;DHT22;7101;51.600;7.310;2022-08-19T04:52:25;16.60;99.90
14053;DHT22;7101;51.600;7.310;2022-08-19T04:54:52;16.80;99.90
14053;DHT22;7101;51.600;7.310;2022-08-19T04:57:21;16.90;99.90
14053;DHT22;7101;51.600;7.310;2022-08-19T04:59:48;17.10;99.90
14053;DHT22;7101;51.600;7.310;2022-08-19T05:02:15;17.20;99.90
14053;DHT22;7101;51.600;7.310;2022-08-19T05:04:43;17.30;99.90
14053;DHT22;7101;51.600;7.310;2022-08-19T05:07:10;17.40;99.90
14053;DHT22;7101;51.600;7.310;2022-08-19T05:09:37;17.50;99.90
14053;DHT22;7101;51.600;7.310;2022-08-19T05:12:05;17.50;99.90
14053;DHT22;7101;51.600;7.310;2022-08-19T05:14:32;17.60;99.90
14053;DHT22;7101;51.600;7.310;2022-08-19T05:17:00;17.60;99.90
14053;DHT22;7101;51.600;7.310;2022-08-19T05:19:27;17.80;99.90
14053;DHT22;7101;51.600;7.310;2022-08-19T05:22:15;18.00;99.90
14053;DHT22;7101;51.600;7.310;2022-08-19T05:25:06;18.30;99.90
14053;DHT22;7101;51.600;7.310;2022-08-19T05:27:33;18.90;99.90
14053;DHT22;7101;51.600;7.310;2022-08-19T05:30:01;19.30;99.90
14053;DHT22;7101;51.600;7.310;2022-08-19T05:32:27;19.50;99.90
14053;DHT22;7101;51.600;7.310;2022-08-19T05:34:54;19.80;99.90
14053;DHT22;7101;51.600;7.310;2022-08-19T05:37:23;19.80;99.90
14053;DHT22;7101;51.600;7.310;2022-08-19T05:39:52;20.20;99.90
14053;DHT22;7101;51.600;7.310;2022-08-19T05:42:20;20.50;99.90
14053;DHT22;7101;51.600;7.310;2022-08-19T05:44:51;21.30;99.90
14053;DHT22;7101;51.600;7.310;2022-08-19T05:47:18;22.20;99.90
14053;DHT22;7101;51.600;7.310;2022-08-19T05:49:45;23.10;47.30
14053;DHT22;7101;51.600;7.310;2022-08-19T05:52:14;23.50;18.90
14053;DHT22;7101;51.600;7.310;2022-08-19T05:54:43;24.40;99.90
14053;DHT22;7101;51.600;7.310;2022-08-19T05:57:13;25.10;1.00
14053;DHT22;7101;51.600;7.310;2022-08-19T05:59:40;25.50;1.00
14053;DHT22;7101;51.600;7.310;2022-08-19T06:02:07;26.00;1.00
14053;DHT22;7101;51.600;7.310;2022-08-19T06:04:34;26.10;1.00
14053;DHT22;7101;51.600;7.310;2022-08-19T06:07:01;25.70;1.00
14053;DHT22;7101;51.600;7.310;2022-08-19T06:09:28;25.90;1.00
14053;DHT22;7101;51.600;7.310;2022-08-19T06:11:58;26.30;1.00
14053;DHT22;7101;51.600;7.310;2022-08-19T06:14:29;26.00;1.00
14053;DHT22;7101;51.600;7.310;2022-08-19T06:16:56;25.90;1.00
14053;DHT22;7101;51.600;7.310;2022-08-19T06:19:25;25.70;1.00
14053;DHT22;7101;51.600;7.310;2022-08-19T06:21:57;24.80;1.00
14053;DHT22;7101;51.600;7.310;2022-08-19T06:24:27;24.00;99.90
14053;DHT22;7101;51.600;7.310;2022-08-19T06:26:55;23.50;99.90
14053;DHT22;7101;51.600;7.310;2022-08-19T06:29:25;23.20;99.90
14053;DHT22;7101;51.600;7.310;2022-08-19T06:31:55;23.40;99.90
14053;DHT22;7101;51.600;7.310;2022-08-19T06:34:23;23.80;99.90
14053;DHT22;7101;51.600;7.310;2022-08-19T06:36:51;24.60;99.90
14053;DHT22;7101;51.600;7.310;2022-08-19T06:39:20;25.80;1.00
14053;DHT22;7101;51.600;7.310;2022-08-19T06:41:49;26.60;1.00
14053;DHT22;7101;51.600;7.310;2022-08-19T06:44:17;27.00;1.00
14053;DHT22;7101;51.600;7.310;2022-08-19T06:46:45;26.70;99.90
14053;DHT22;7101;51.600;7.310;2022-08-19T06:49:14;26.60;1.00
14053;DHT22;7101;51.600;7.310;2022-08-19T06:51:42;26.70;1.00
14053;DHT22;7101;51.600;7.310;2022-08-19T06:54:10;26.90;99.90
14053;DHT22;7101;51.600;7.310;2022-08-19T06:56:37;26.80;1.00
14053;DHT22;7101;51.600;7.310;2022-08-19T06:59:07;27.10;1.00
14053;DHT22;7101;51.600;7.310;2022-08-19T07:01:35;28.30;13.60
14053;DHT22;7101;51.600;7.310;2022-08-19T07:04:05;29.10;1.00
14053;DHT22;7101;51.600;7.310;2022-08-19T07:06:33;29.40;1.00
14053;DHT22;7101;51.600;7.310;2022-08-19T07:08:59;29.20;99.90
14053;DHT22;7101;51.600;7.310;2022-08-19T07:11:27;28.80;99.90
14053;DHT22;7101;51.600;7.310;2022-08-19T07:13:54;28.50;1.00
14053;DHT22;7101;51.600;7.310;2022-08-19T07:16:21;28.00;1.00
14053;DHT22;7101;51.600;7.310;2022-08-19T07:18:49;27.70;49.10
14053;DHT22;7101;51.600;7.310;2022-08-19T07:21:20;27.90;1.00
14053;DHT22;7101;51.600;7.310;2022-08-19T07:23:51;29.00;1.00
14053;DHT22;7101;51.600;7.310;2022-08-19T07:26:20;30.10;77.70
14053;DHT22;7101;51.600;7.310;2022-08-19T07:28:54;30.50;1.00
14053;DHT22;7101;51.600;7.310;2022-08-19T07:31:23;30.10;99.90
14053;DHT22;7101;51.600;7.310;2022-08-19T07:33:52;29.20;1.00
14053;DHT22;7101;51.600;7.310;2022-08-19T07:36:24;28.30;1.00
14053;DHT22;7101;51.600;7.310;2022-08-19T07:38:51;27.80;1.00
14053;DHT22;7101;51.600;7.310;2022-08-19T07:41:20;27.90;1.00
14053;DHT22;7101;51.600;7.310;2022-08-19T07:43:47;28.10;1.00
14053;DHT22;7101;51.600;7.310;2022-08-19T07:46:17;28.60;99.90
14053;DHT22;7101;51.600;7.310;2022-08-19T07:48:47;29.00;1.00
14053;DHT22;7101;51.600;7.310;2022-08-19T07:51:17;28.70;99.90
14053;DHT22;7101;51.600;7.310;2022-08-19T07:53:47;28.30;99.90
14053;DHT22;7101;51.600;7.310;2022-08-19T07:56:14;27.80;1.00
14053;DHT22;7101;51.600;7.310;2022-08-19T07:58:43;27.60;1.00
14053;DHT22;7101;51.600;7.310;2022-08-19T08:01:13;28.10;1.00
14053;DHT22;7101;51.600;7.310;2022-08-19T08:03:40;28.00;1.00
14053;DHT22;7101;51.600;7.310;2022-08-19T08:06:24;28.50;1.00
14053;DHT22;7101;51.600;7.310;2022-08-19T08:09:10;28.20;1.00
14053;DHT22;7101;51.600;7.310;2022-08-19T08:11:37;29.00;99.90
14053;DHT22;7101;51.600;7.310;2022-08-19T08:14:05;29.40;99.90
14053;DHT22;7101;51.600;7.310;2022-08-19T08:16:35;29.50;1.00
14053;DHT22;7101;51.600;7.310;2022-08-19T08:19:04;30.00;1.00
14053;DHT22;7101;51.600;7.310;2022-08-19T08:21:32;30.10;1.00
14053;DHT22;7101;51.600;7.310;2022-08-19T08:23:59;29.60;99.90
14053;DHT22;7101;51.600;7.310;2022-08-19T08:26:27;29.60;1.00
14053;DHT22;7101;51.600;7.310;2022-08-19T08:28:54;30.10;1.00
14053;DHT22;7101;51.600;7.310;2022-08-19T08:31:21;30.00;99.90
14053;DHT22;7101;51.600;7.310;2022-08-19T08:33:49;29.80;99.90
14053;DHT22;7101;51.600;7.310;2022-08-19T08:36:16;30.10;99.90
14053;DHT22;7101;51.600;7.310;2022-08-19T08:38:43;30.50;99.90
14053;DHT22;7101;51.600;7.310;2022-08-19T08:41:18;31.10;1.00
14053;DHT22;7101;51.600;7.310;2022-08-19T08:43:49;31.10;1.00
14053;DHT22;7101;51.600;7.310;2022-08-19T08:46:22;31.60;1.00
14053;DHT22;7101;51.600;7.310;2022-08-19T08:48:54;32.00;99.90
14053;DHT22;7101;51.600;7.310;2022-08-19T08:51:26;31.80;99.20
14053;DHT22;7101;51.600;7.310;2022-08-19T08:53:54;32.10;1.00
14053;DHT22;7101;51.600;7.310;2022-08-19T08:56:22;31.60;1.00
14053;DHT22;7101;51.600;7.310;2022-08-19T08:58:56;32.00;1.00
14053;DHT22;7101;51.600;7.310;2022-08-19T09:01:25;32.30;1.00
14053;DHT22;7101;51.600;7.310;2022-08-19T09:03:53;31.60;99.90
14053;DHT22;7101;51.600;7.310;2022-08-19T09:06:25;31.10;99.90
14053;DHT22;7101;51.600;7.310;2022-08-19T09:09:00;31.00;99.90
14053;DHT22;7101;51.600;7.310;2022-08-19T09:11:40;30.30;99.90
14053;DHT22;7101;51.600;7.310;2022-08-19T09:14:18;29.10;99.90
14053;DHT22;7101;51.600;7.310;2022-08-19T09:16:47;28.50;1.00
14053;DHT22;7101;51.600;7.310;2022-08-19T09:19:15;28.80;1.00
14053;DHT22;7101;51.600;7.310;2022-08-19T09:21:42;28.50;99.90
14053;DHT22;7101;51.600;7.310;2022-08-19T09:24:10;28.70;99.90
14053;DHT22;7101;51.600;7.310;2022-08-19T09:26:37;29.30;99.90
14053;DHT22;7101;51.600;7.310;2022-08-19T09:29:04;29.20;1.00
14053;DHT22;7101;51.600;7.310;2022-08-19T09:31:33;28.80;1.00
14053;DHT22;7101;51.600;7.310;2022-08-19T09:34:00;28.60;1.00
14053;DHT22;7101;51.600;7.310;2022-08-19T09:36:29;28.90;1.00
14053;DHT22;7101;51.600;7.310;2022-08-19T09:38:58;29.00;1.00
14053;DHT22;7101;51.600;7.310;2022-08-19T09:41:27;28.70;1.00
14053;DHT22;7101;51.600;7.310;2022-08-19T09:43:55;29.00;99.90
14053;DHT22;7101;51.600;7.310;2022-08-19T09:46:23;28.60;99.90
14053;DHT22;7101;51.600;7.310;2022-08-19T09:48:53;27.80;99.90
14053;DHT22;7101;51.600;7.310;2022-08-19T09:51:22;27.70;1.00
14053;DHT22;7101;51.600;7.310;2022-08-19T09:53:50;28.00;99.90
14053;DHT22;7101;51.600;7.310;2022-08-19T09:56:20;28.10;53.80
14053;DHT22;7101;51.600;7.310;2022-08-19T09:58:48;28.20;99.90
14053;DHT22;7101;51.600;7.310;2022-08-19T10:01:19;28.40;99.90
14053;DHT22;7101;51.600;7.310;2022-08-19T10:03:48;28.90;99.90
14053;DHT22;7101;51.600;7.310;2022-08-19T10:06:18;29.20;40.80
14053;DHT22;7101;51.600;7.310;2022-08-19T10:08:46;29.40;1.00
14053;DHT22;7101;51.600;7.310;2022-08-19T10:11:13;29.20;1.00
14053;DHT22;7101;51.600;7.310;2022-08-19T10:13:43;29.30;1.00
14053;DHT22;7101;51.600;7.310;2022-08-19T10:16:13;28.90;1.00
14053;DHT22;7101;51.600;7.310;2022-08-19T10:18:41;29.20;1.00
14053;DHT22;7101;51.600;7.310;2022-08-19T10:21:12;29.70;99.90
14053;DHT22;7101;51.600;7.310;2022-08-19T10:23:41;29.50;99.90
14053;DHT22;7101;51.600;7.310;2022-08-19T10:26:10;29.30;99.90
14053;DHT22;7101;51.600;7.310;2022-08-19T10:28:38;29.10;99.90
14053;DHT22;7101;51.600;7.310;2022-08-19T10:31:07;29.20;99.90
14053;DHT22;7101;51.600;7.310;2022-08-19T10:33:35;29.20;59.50
14053;DHT22;7101;51.600;7.310;2022-08-19T10:36:05;29.10;1.00
14053;DHT22;7101;51.600;7.310;2022-08-19T10:38:32;29.00;26.50
14053;DHT22;7101;51.600;7.310;2022-08-19T10:41:08;29.10;99.90
14053;DHT22;7101;51.600;7.310;2022-08-19T10:43:35;29.00;99.90
14053;DHT22;7101;51.600;7.310;2022-08-19T10:46:04;29.00;99.90
14053;DHT22;7101;51.600;7.310;2022-08-19T10:48:31;29.10;99.90
14053;DHT22;7101;51.600;7.310;2022-08-19T10:50:58;28.50;99.90
14053;DHT22;7101;51.600;7.310;2022-08-19T10:53:43;28.20;99.90
14053;DHT22;7101;51.600;7.310;2022-08-19T10:56:11;28.10;99.90
14053;DHT22;7101;51.600;7.310;2022-08-19T10:58:55;28.20;99.90
14053;DHT22;7101;51.600;7.310;2022-08-19T11:01:23;28.50;99.90
14053;DHT22;7101;51.600;7.310;2022-08-19T11:03:50;28.50;7.50
14053;DHT22;7101;51.600;7.310;2022-08-19T11:06:18;28.30;1.00
14053;DHT22;7101;51.600;7.310;2022-08-19T11:08:45;27.90;1.00
14053;DHT22;7101;51.600;7.310;2022-08-19T11:11:13;28.30;99.90
14053;DHT22;7101;51.600;7.310;2022-08-19T11:13:41;28.90;1.00
14053;DHT22;7101;51.600;7.310;2022-08-19T11:16:11;29.20;1.00
14053;DHT22;7101;51.600;7.310;2022-08-19T11:18:42;29.50;1.00
14053;DHT22;7101;51.600;7.310;2022-08-19T11:21:13;29.50;1.00
14053;DHT22;7101;51.600;7.310;2022-08-19T11:23:42;29.60;1.00
14053;DHT22;7101;51.600;7.310;2022-08-19T11:26:10;29.50;99.90
14053;DHT22;7101;51.600;7.310;2022-08-19T11:28:38;29.50;99.90
14053;DHT22;7101;51.600;7.310;2022-08-19T11:31:10;29.30;99.90
14053;DHT22;7101;51.600;7.310;2022-08-19T11:33:37;29.00;99.90
14053;DHT22;7101;51.600;7.310;2022-08-19T11:36:04;28.80;99.90
14053;DHT22;7101;51.600;7.310;2022-08-19T11:38:32;28.70;99.90
14053;DHT22;7101;51.600;7.310;2022-08-19T11:41:03;28.90;99.90
14053;DHT22;7101;51.600;7.310;2022-08-19T11:43:30;28.80;99.90
14053;DHT22;7101;51.600;7.310;2022-08-19T11:45:59;28.70;99.90
14053;DHT22;7101;51.600;7.310;2022-08-19T11:48:25;28.40;99.90
14053;DHT22;7101;51.600;7.310;2022-08-19T11:50:53;28.10;99.90
14053;DHT22;7101;51.600;7.310;2022-08-19T11:53:21;27.50;1.00
14053;DHT22;7101;51.600;7.310;2022-08-19T11:55:49;27.20;1.00
14053;DHT22;7101;51.600;7.310;2022-08-19T11:58:17;27.70;79.30
14053;DHT22;7101;51.600;7.310;2022-08-19T12:00:44;28.20;27.40
14053;DHT22;7101;51.600;7.310;2022-08-19T12:03:14;28.70;1.00
14053;DHT22;7101;51.600;7.310;2022-08-19T12:05:42;29.20;1.00
14053;DHT22;7101;51.600;7.310;2022-08-19T12:08:09;29.30;1.00
14053;DHT22;7101;51.600;7.310;2022-08-19T12:10:37;29.00;99.90
14053;DHT22;7101;51.600;7.310;2022-08-19T12:13:04;29.10;99.90
14053;DHT22;7101;51.600;7.310;2022-08-19T12:15:35;29.50;99.90
14053;DHT22;7101;51.600;7.310;2022-08-19T12:18:02;29.60;99.90
14053;DHT22;7101;51.600;7.310;2022-08-19T12:20:32;29.50;99.90
14053;DHT22;7101;51.600;7.310;2022-08-19T12:23:00;30.00;70.60
14053;DHT22;7101;51.600;7.310;2022-08-19T12:25:27;30.20;1.00
14053;DHT22;7101;51.600;7.310;2022-08-19T12:27:53;29.90;1.00
14053;DHT22;7101;51.600;7.310;2022-08-19T12:30:20;29.80;1.00
14053;DHT22;7101;51.600;7.310;2022-08-19T12:32:47;29.80;1.00
14053;DHT22;7101;51.600;7.310;2022-08-19T12:35:14;29.60;1.00
14053;DHT22;7101;51.600;7.310;2022-08-19T12:37:42;29.30;1.00
14053;DHT22;7101;51.600;7.310;2022-08-19T12:40:11;29.10;1.00
14053;DHT22;7101;51.600;7.310;2022-08-19T12:42:38;29.00;1.00
14053;DHT22;7101;51.600;7.310;2022-08-19T12:45:08;28.90;1.00
14053;DHT22;7101;51.600;7.310;2022-08-19T12:47:36;28.60;1.00
14053;DHT22;7101;51.600;7.310;2022-08-19T12:50:03;28.70;1.00
14053;DHT22;7101;51.600;7.310;2022-08-19T12:52:34;29.00;1.00
14053;DHT22;7101;51.600;7.310;2022-08-19T12:55:06;29.20;1.00
14053;DHT22;7101;51.600;7.310;2022-08-19T12:57:33;29.50;1.00
14053;DHT22;7101;51.600;7.310;2022-08-19T13:00:04;29.50;1.00
14053;DHT22;7101;51.600;7.310;2022-08-19T13:02:33;29.40;1.00
14053;DHT22;7101;51.600;7.310;2022-08-19T13:05:00;29.40;1.00
14053;DHT22;7101;51.600;7.310;2022-08-19T13:07:27;29.50;1.00
14053;DHT22;7101;51.600;7.310;2022-08-19T13:09:56;29.60;1.00
14053;DHT22;7101;51.600;7.310;2022-08-19T13:12:24;29.70;1.00
14053;DHT22;7101;51.600;7.310;2022-08-19T13:14:52;29.90;1.00
14053;DHT22;7101;51.600;7.310;2022-08-19T13:17:19;29.90;1.00
14053;DHT22;7101;51.600;7.310;2022-08-19T13:19:46;29.60;1.00
14053;DHT22;7101;51.600;7.310;2022-08-19T13:22:13;29.40;1.00
14053;DHT22;7101;51.600;7.310;2022-08-19T13:24:40;29.10;1.00
14053;DHT22;7101;51.600;7.310;2022-08-19T13:27:06;29.20;1.00
14053;DHT22;7101;51.600;7.310;2022-08-19T13:29:35;29.00;1.00
14053;DHT22;7101;51.600;7.310;2022-08-19T13:32:19;29.00;1.00
14053;DHT22;7101;51.600;7.310;2022-08-19T13:35:12;28.50;99.90
14053;DHT22;7101;51.600;7.310;2022-08-19T13:37:38;28.50;1.00
14053;DHT22;7101;51.600;7.310;2022-08-19T13:40:11;28.70;1.00
14053;DHT22;7101;51.600;7.310;2022-08-19T13:42:40;29.10;1.00
14053;DHT22;7101;51.600;7.310;2022-08-19T13:45:09;29.40;1.00
14053;DHT22;7101;51.600;7.310;2022-08-19T13:47:37;29.80;1.00
14053;DHT22;7101;51.600;7.310;2022-08-19T13:50:08;29.70;1.00
14053;DHT22;7101;51.600;7.310;2022-08-19T13:52:36;29.70;1.00
14053;DHT22;7101;51.600;7.310;2022-08-19T13:55:03;29.80;1.00
14053;DHT22;7101;51.600;7.310;2022-08-19T13:57:30;29.50;99.90
14053;DHT22;7101;51.600;7.310;2022-08-19T13:59:57;29.60;99.90
14053;DHT22;7101;51.600;7.310;2022-08-19T14:02:26;29.60;99.90
14053;DHT22;7101;51.600;7.310;2022-08-19T14:04:53;29.10;99.90
14053;DHT22;7101;51.600;7.310;2022-08-19T14:07:20;28.70;99.90
14053;DHT22;7101;51.600;7.310;2022-08-19T14:09:49;28.50;99.90
14053;DHT22;7101;51.600;7.310;2022-08-19T14:12:19;28.40;99.90
14053;DHT22;7101;51.600;7.310;2022-08-19T14:14:46;28.60;99.90
14053;DHT22;7101;51.600;7.310;2022-08-19T14:17:13;28.60;99.90
14053;DHT22;7101;51.600;7.310;2022-08-19T14:19:41;28.80;99.90
14053;DHT22;7101;51.600;7.310;2022-08-19T14:22:08;28.50;99.90
14053;DHT22;7101;51.600;7.310;2022-08-19T14:24:36;28.60;99.90
14053;DHT22;7101;51.600;7.310;2022-08-19T14:27:04;28.90;99.90
14053;DHT22;7101;51.600;7.310;2022-08-19T14:29:31;28.70;99.90
14053;DHT22;7101;51.600;7.310;2022-08-19T14:31:58;28.70;99.90
14053;DHT22;7101;51.600;7.310;2022-08-19T14:34:25;28.50;99.90
14053;DHT22;7101;51.600;7.310;2022-08-19T14:36:53;28.50;99.90
14053;DHT22;7101;51.600;7.310;2022-08-19T14:39:20;28.60;99.90
14053;DHT22;7101;51.600;7.310;2022-08-19T14:41:50;28.60;99.90
14053;DHT22;7101;51.600;7.310;2022-08-19T14:44:17;28.70;99.90
14053;DHT22;7101;51.600;7.310;2022-08-19T14:46:43;28.40;99.90
14053;DHT22;7101;51.600;7.310;2022-08-19T14:49:10;28.10;99.90
14053;DHT22;7101;51.600;7.310;2022-08-19T14:51:37;27.80;99.90
14053;DHT22;7101;51.600;7.310;2022-08-19T14:54:05;28.00;99.90
14053;DHT22;7101;51.600;7.310;2022-08-19T14:56:32;28.30;99.90
14053;DHT22;7101;51.600;7.310;2022-08-19T14:58:59;28.60;99.90
14053;DHT22;7101;51.600;7.310;2022-08-19T15:01:27;28.80;99.90
14053;DHT22;7101;51.600;7.310;2022-08-19T15:03:54;29.00;99.90
14053;DHT22;7101;51.600;7.310;2022-08-19T15:06:21;29.00;99.90
14053;DHT22;7101;51.600;7.310;2022-08-19T15:08:48;29.00;99.90
14053;DHT22;7101;51.600;7.310;2022-08-19T15:11:20;28.80;99.90
14053;DHT22;7101;51.600;7.310;2022-08-19T15:13:48;28.90;99.90
14053;DHT22;7101;51.600;7.310;2022-08-19T15:16:16;29.10;99.90
14053;DHT22;7101;51.600;7.310;2022-08-19T15:18:44;28.90;99.90
14053;DHT22;7101;51.600;7.310;2022-08-19T15:21:15;29.00;99.90
14053;DHT22;7101;51.600;7.310;2022-08-19T15:23:51;28.70;99.90
14053;DHT22;7101;51.600;7.310;2022-08-19T15:26:20;28.50;99.90
14053;DHT22;7101;51.600;7.310;2022-08-19T15:28:47;28.40;99.90
14053;DHT22;7101;51.600;7.310;2022-08-19T15:31:17;28.40;99.90
14053;DHT22;7101;51.600;7.310;2022-08-19T15:33:44;28.40;99.90
14053;DHT22;7101;51.600;7.310;2022-08-19T15:36:11;28.70;99.90
14053;DHT22;7101;51.600;7.310;2022-08-19T15:38:38;28.90;99.90
14053;DHT22;7101;51.600;7.310;2022-08-19T15:41:15;29.00;99.90
14053;DHT22;7101;51.600;7.310;2022-08-19T15:43:52;28.90;99.90
14053;DHT22;7101;51.600;7.310;2022-08-19T15:46:22;28.90;99.90
14053;DHT22;7101;51.600;7.310;2022-08-19T15:48:51;28.60;99.90
14053;DHT22;7101;51.600;7.310;2022-08-19T15:51:19;28.60;99.90
14053;DHT22;7101;51.600;7.310;2022-08-19T15:53:47;28.50;99.90
14053;DHT22;7101;51.600;7.310;2022-08-19T15:56:14;28.40;99.90
14053;DHT22;7101;51.600;7.310;2022-08-19T15:58:41;28.40;99.90